sensor_id;sensor_type;location;lat;lon;timestamp;pressure;altitude;pressure_sealevel;temperature;humidity
64844;BME280;51310;52.198;5.422;2023-04-06T00:02:05;101614.88;;;2.31;100.00
64844;BME280;51310;52.198;5.422;2023-04-06T00:04:31;101615.97;;;2.33;100.00
64844;BME280;51310;52.198;5.422;2023-04-06T00:06:57;101618.53;;;2.33;100.00
64844;BME280;51310;52.198;5.422;2023-04-06T00:09:22;101607.94;;;2.30;100.00
64844;BME280;51310;52.198;5.422;2023-04-06T00:11:48;101611.25;;;2.23;100.00
64844;BME280;51310;52.198;5.422;2023-04-06T00:14:14;101603.88;;;2.19;100.00
64844;BME280;51310;52.198;5.422;2023-04-06T00:16:41;101600.44;;;2.19;100.00
64844;BME280;51310;52.198;5.422;2023-04-06T00:19:07;101607.34;;;2.20;100.00
64844;BME280;51310;52.198;5.422;2023-04-06T00:21:32;101606.91;;;2.17;100.00
64844;BME280;51310;52.198;5.422;2023-04-06T00:23:58;101605.34;;;2.12;100.00
64844;BME280;51310;52.198;5.422;2023-04-06T00:26:24;101603.34;;;2.03;100.00
64844;BME280;51310;52.198;5.422;2023-04-06T00:28:49;101598.47;;;2.05;100.00
64844;BME280;51310;52.198;5.422;2023-04-06T00:31:17;101598.19;;;2.09;100.00
64844;BME280;51310;52.198;5.422;2023-04-06T00:33:43;101593.38;;;2.05;100.00
64844;BME280;51310;52.198;5.422;2023-04-06T00:36:08;101591.06;;;2.07;100.00
64844;BME280;51310;52.198;5.422;2023-04-06T00:38:34;101591.34;;;2.02;100.00
64844;BME280;51310;52.198;5.422;2023-04-06T00:41:00;101581.19;;;2.02;100.00
64844;BME280;51310;52.198;5.422;2023-04-06T00:43:26;101584.63;;;2.03;100.00
64844;BME280;51310;52.198;5.422;2023-04-06T00:45:52;101579.34;;;2.01;100.00
64844;BME280;51310;52.198;5.422;2023-04-06T00:48:18;101573.81;;;1.98;100.00
64844;BME280;51310;52.198;5.422;2023-04-06T00:50:43;101566.47;;;1.94;100.00
64844;BME280;51310;52.198;5.422;2023-04-06T00:53:09;101564.44;;;1.92;100.00
64844;BME280;51310;52.198;5.422;2023-04-06T00:55:35;101559.81;;;1.95;100.00
64844;BME280;51310;52.198;5.422;2023-04-06T00:58:01;101567.88;;;1.92;100.00
64844;BME280;51310;52.198;5.422;2023-04-06T01:00:27;101560.75;;;1.90;100.00
64844;BME280;51310;52.198;5.422;2023-04-06T01:02:53;101556.38;;;1.89;100.00
64844;BME280;51310;52.198;5.422;2023-04-06T01:05:19;101558.03;;;1.88;100.00
64844;BME280;51310;52.198;5.422;2023-04-06T01:07:45;101555.47;;;1.88;100.00
64844;BME280;51310;52.198;5.422;2023-04-06T01:10:22;101547.88;;;1.88;100.00
64844;BME280;51310;52.198;5.422;2023-04-06T01:12:48;101546.25;;;1.89;100.00
64844;BME280;51310;52.198;5.422;2023-04-06T01:15:14;101542.97;;;1.90;100.00
64844;BME280;51310;52.198;5.422;2023-04-06T01:17:40;101537.72;;;1.88;100.00
64844;BME280;51310;52.198;5.422;2023-04-06T01:20:07;101533.78;;;1.90;100.00
64844;BME280;51310;52.198;5.422;2023-04-06T01:22:33;101533.53;;;1.89;100.00
64844;BME280;51310;52.198;5.422;2023-04-06T01:24:58;101529.81;;;1.92;100.00
64844;BME280;51310;52.198;5.422;2023-04-06T01:27:24;101531.44;;;1.92;100.00
64844;BME280;51310;52.198;5.422;2023-04-06T01:29:51;101533.06;;;1.91;100.00
64844;BME280;51310;52.198;5.422;2023-04-06T01:32:17;101524.53;;;1.91;100.00
64844;BME280;51310;52.198;5.422;2023-04-06T01:34:43;101532.81;;;1.90;100.00
64844;BME280;51310;52.198;5.422;2023-04-06T01:37:09;101510.22;;;1.91;100.00
64844;BME280;51310;52.198;5.422;2023-04-06T01:39:34;101511.09;;;1.97;100.00
64844;BME280;51310;52.198;5.422;2023-04-06T01:42:00;101517.97;;;1.98;100.00
64844;BME280;51310;52.198;5.422;2023-04-06T01:44:26;101514.97;;;2.01;100.00
64844;BME280;51310;52.198;5.422;2023-04-06T01:46:52;101509.19;;;2.02;100.00
64844;BME280;51310;52.198;5.422;2023-04-06T01:49:18;101510.31;;;2.04;100.00
64844;BME280;51310;52.198;5.422;2023-04-06T01:51:43;101512.59;;;2.08;100.00
64844;BME280;51310;52.198;5.422;2023-04-06T01:54:09;101501.94;;;2.11;100.00
64844;BME280;51310;52.198;5.422;2023-04-06T01:56:35;101503.56;;;2.10;100.00
64844;BME280;51310;52.198;5.422;2023-04-06T01:59:00;101503.34;;;2.09;100.00
64844;BME280;51310;52.198;5.422;2023-04-06T02:01:26;101500.13;;;2.10;100.00
64844;BME280;51310;52.198;5.422;2023-04-06T02:03:52;101487.88;;;2.07;100.00
64844;BME280;51310;52.198;5.422;2023-04-06T02:06:17;101486.47;;;2.09;100.00
64844;BME280;51310;52.198;5.422;2023-04-06T02:08:43;101491.56;;;2.09;100.00
64844;BME280;51310;52.198;5.422;2023-04-06T02:11:09;101487.34;;;2.15;100.00
64844;BME280;51310;52.198;5.422;2023-04-06T02:13:34;101480.38;;;2.20;100.00
64844;BME280;51310;52.198;5.422;2023-04-06T02:16:00;101476.22;;;2.20;100.00
64844;BME280;51310;52.198;5.422;2023-04-06T02:18:30;101476.22;;;2.20;100.00
64844;BME280;51310;52.198;5.422;2023-04-06T02:20:55;101473.88;;;2.22;100.00
64844;BME280;51310;52.198;5.422;2023-04-06T02:23:21;101470.66;;;2.23;100.00
64844;BME280;51310;52.198;5.422;2023-04-06T02:25:47;101468.25;;;2.30;100.00
64844;BME280;51310;52.198;5.422;2023-04-06T02:28:13;101468.47;;;2.32;100.00
64844;BME280;51310;52.198;5.422;2023-04-06T02:30:38;101462.66;;;2.33;100.00
64844;BME280;51310;52.198;5.422;2023-04-06T02:33:04;101464.94;;;2.37;100.00
64844;BME280;51310;52.198;5.422;2023-04-06T02:35:31;101466.69;;;2.43;100.00
64844;BME280;51310;52.198;5.422;2023-04-06T02:37:57;101462.75;;;2.45;100.00
64844;BME280;51310;52.198;5.422;2023-04-06T02:40:22;101472.13;;;2.52;100.00
64844;BME280;51310;52.198;5.422;2023-04-06T02:42:48;101461.97;;;2.52;100.00
64844;BME280;51310;52.198;5.422;2023-04-06T02:45:14;101458.75;;;2.53;100.00
64844;BME280;51310;52.198;5.422;2023-04-06T02:47:39;101456.69;;;2.51;100.00
64844;BME280;51310;52.198;5.422;2023-04-06T02:50:06;101451.13;;;2.53;100.00
64844;BME280;51310;52.198;5.422;2023-04-06T02:52:32;101453.44;;;2.52;100.00
64844;BME280;51310;52.198;5.422;2023-04-06T02:54:58;101456.19;;;2.53;100.00
64844;BME280;51310;52.198;5.422;2023-04-06T02:57:23;101447.84;;;2.54;100.00
64844;BME280;51310;52.198;5.422;2023-04-06T02:59:49;101447.63;;;2.53;100.00
64844;BME280;51310;52.198;5.422;2023-04-06T03:02:15;101437.00;;;2.55;100.00
64844;BME280;51310;52.198;5.422;2023-04-06T03:04:42;101437.91;;;2.56;100.00
64844;BME280;51310;52.198;5.422;2023-04-06T03:07:07;101440.38;;;2.61;100.00
64844;BME280;51310;52.198;5.422;2023-04-06T03:09:33;101434.31;;;2.66;100.00
64844;BME280;51310;52.198;5.422;2023-04-06T03:11:59;101428.72;;;2.69;100.00
64844;BME280;51310;52.198;5.422;2023-04-06T03:14:25;101433.28;;;2.72;100.00
64844;BME280;51310;52.198;5.422;2023-04-06T03:16:51;101422.00;;;2.70;100.00
64844;BME280;51310;52.198;5.422;2023-04-06T03:19:16;101430.25;;;2.74;100.00
64844;BME280;51310;52.198;5.422;2023-04-06T03:21:42;101429.56;;;2.75;100.00
64844;BME280;51310;52.198;5.422;2023-04-06T03:24:08;101423.06;;;2.77;100.00
64844;BME280;51310;52.198;5.422;2023-04-06T03:26:34;101428.75;;;2.82;100.00
64844;BME280;51310;52.198;5.422;2023-04-06T03:28:59;101424.19;;;2.79;100.00
64844;BME280;51310;52.198;5.422;2023-04-06T03:31:26;101419.94;;;2.85;100.00
64844;BME280;51310;52.198;5.422;2023-04-06T03:33:52;101422.66;;;2.87;100.00
64844;BME280;51310;52.198;5.422;2023-04-06T03:36:18;101422.25;;;2.84;100.00
64844;BME280;51310;52.198;5.422;2023-04-06T03:38:43;101425.31;;;2.81;100.00
64844;BME280;51310;52.198;5.422;2023-04-06T03:41:09;101418.81;;;2.83;100.00
64844;BME280;51310;52.198;5.422;2023-04-06T03:43:35;101414.63;;;2.84;100.00
64844;BME280;51310;52.198;5.422;2023-04-06T03:46:01;101410.69;;;2.86;100.00
64844;BME280;51310;52.198;5.422;2023-04-06T03:48:27;101397.97;;;2.86;100.00
64844;BME280;51310;52.198;5.422;2023-04-06T03:50:52;101399.78;;;2.87;100.00
64844;BME280;51310;52.198;5.422;2023-04-06T03:53:18;101396.13;;;2.85;100.00
64844;BME280;51310;52.198;5.422;2023-04-06T03:55:44;101391.97;;;2.85;100.00
64844;BME280;51310;52.198;5.422;2023-04-06T03:58:09;101397.47;;;2.88;100.00
64844;BME280;51310;52.198;5.422;2023-04-06T04:00:35;101395.66;;;2.87;100.00
64844;BME280;51310;52.198;5.422;2023-04-06T04:03:01;101402.84;;;2.84;100.00
64844;BME280;51310;52.198;5.422;2023-04-06T04:05:28;101398.25;;;2.82;100.00
64844;BME280;51310;52.198;5.422;2023-04-06T04:07:54;101398.03;;;2.80;100.00
64844;BME280;51310;52.198;5.422;2023-04-06T04:10:19;101397.41;;;2.76;100.00
64844;BME280;51310;52.198;5.422;2023-04-06T04:12:45;101392.34;;;2.76;100.00
64844;BME280;51310;52.198;5.422;2023-04-06T04:15:10;101396.28;;;2.74;100.00
64844;BME280;51310;52.198;5.422;2023-04-06T04:17:36;101391.50;;;2.70;100.00
64844;BME280;51310;52.198;5.422;2023-04-06T04:20:02;101389.06;;;2.64;100.00
64844;BME280;51310;52.198;5.422;2023-04-06T04:22:28;101394.44;;;2.60;100.00
64844;BME280;51310;52.198;5.422;2023-04-06T04:24:53;101396.13;;;2.54;100.00
64844;BME280;51310;52.198;5.422;2023-04-06T04:27:19;101398.66;;;2.54;100.00
64844;BME280;51310;52.198;5.422;2023-04-06T04:29:46;101395.91;;;2.52;100.00
64844;BME280;51310;52.198;5.422;2023-04-06T04:32:12;101390.72;;;2.45;100.00
64844;BME280;51310;52.198;5.422;2023-04-06T04:34:37;101394.16;;;2.45;100.00
64844;BME280;51310;52.198;5.422;2023-04-06T04:37:06;101399.75;;;2.43;100.00
64844;BME280;51310;52.198;5.422;2023-04-06T04:39:32;101394.66;;;2.43;100.00
64844;BME280;51310;52.198;5.422;2023-04-06T04:41:58;101388.72;;;2.37;100.00
64844;BME280;51310;52.198;5.422;2023-04-06T04:44:23;101392.84;;;2.42;100.00
64844;BME280;51310;52.198;5.422;2023-04-06T04:46:49;101397.41;;;2.44;100.00
64844;BME280;51310;52.198;5.422;2023-04-06T04:49:15;101390.50;;;2.43;100.00
64844;BME280;51310;52.198;5.422;2023-04-06T04:51:40;101390.41;;;2.49;100.00
64844;BME280;51310;52.198;5.422;2023-04-06T04:54:06;101386.97;;;2.49;100.00
64844;BME280;51310;52.198;5.422;2023-04-06T04:56:32;101378.41;;;2.48;100.00
64844;BME280;51310;52.198;5.422;2023-04-06T04:58:57;101390.81;;;2.52;100.00
64844;BME280;51310;52.198;5.422;2023-04-06T05:01:23;101388.00;;;2.56;100.00
64844;BME280;51310;52.198;5.422;2023-04-06T05:03:49;101386.88;;;2.54;100.00
64844;BME280;51310;52.198;5.422;2023-04-06T05:06:14;101388.44;;;2.59;100.00
64844;BME280;51310;52.198;5.422;2023-04-06T05:08:42;101392.78;;;2.60;100.00
64844;BME280;51310;52.198;5.422;2023-04-06T05:11:08;101383.47;;;2.66;100.00
64844;BME280;51310;52.198;5.422;2023-04-06T05:13:34;101379.00;;;2.71;100.00
64844;BME280;51310;52.198;5.422;2023-04-06T05:16:00;101374.16;;;2.73;100.00
64844;BME280;51310;52.198;5.422;2023-04-06T05:18:26;101377.31;;;2.77;100.00
64844;BME280;51310;52.198;5.422;2023-04-06T05:20:52;101367.03;;;2.83;100.00
64844;BME280;51310;52.198;5.422;2023-04-06T05:23:18;101374.06;;;2.91;100.00
64844;BME280;51310;52.198;5.422;2023-04-06T05:25:44;101381.13;;;2.99;100.00
64844;BME280;51310;52.198;5.422;2023-04-06T05:28:09;101385.84;;;3.09;100.00
64844;BME280;51310;52.198;5.422;2023-04-06T05:30:35;101374.63;;;3.14;100.00
64844;BME280;51310;52.198;5.422;2023-04-06T05:33:01;101376.75;;;3.24;100.00
64844;BME280;51310;52.198;5.422;2023-04-06T05:35:27;101378.31;;;3.29;100.00
64844;BME280;51310;52.198;5.422;2023-04-06T05:37:53;101371.09;;;3.32;100.00
64844;BME280;51310;52.198;5.422;2023-04-06T05:40:19;101370.09;;;3.37;100.00
64844;BME280;51310;52.198;5.422;2023-04-06T05:42:44;101371.31;;;3.46;100.00
64844;BME280;51310;52.198;5.422;2023-04-06T05:45:11;101365.91;;;3.51;100.00
64844;BME280;51310;52.198;5.422;2023-04-06T05:47:42;101364.66;;;3.54;100.00
64844;BME280;51310;52.198;5.422;2023-04-06T05:50:10;101368.97;;;3.61;100.00
64844;BME280;51310;52.198;5.422;2023-04-06T05:52:36;101363.22;;;3.69;100.00
64844;BME280;51310;52.198;5.422;2023-04-06T05:55:03;101358.25;;;3.76;100.00
64844;BME280;51310;52.198;5.422;2023-04-06T05:57:28;101363.03;;;3.80;100.00
64844;BME280;51310;52.198;5.422;2023-04-06T05:59:54;101368.72;;;3.85;100.00
64844;BME280;51310;52.198;5.422;2023-04-06T06:02:21;101361.09;;;3.85;100.00
64844;BME280;51310;52.198;5.422;2023-04-06T06:04:47;101360.88;;;3.83;100.00
64844;BME280;51310;52.198;5.422;2023-04-06T06:07:14;101365.66;;;3.87;100.00
64844;BME280;51310;52.198;5.422;2023-04-06T06:09:39;101352.63;;;3.92;100.00
64844;BME280;51310;52.198;5.422;2023-04-06T06:12:05;101361.56;;;3.95;100.00
64844;BME280;51310;52.198;5.422;2023-04-06T06:14:31;101356.34;;;4.01;100.00
64844;BME280;51310;52.198;5.422;2023-04-06T06:16:56;101353.28;;;4.03;100.00
64844;BME280;51310;52.198;5.422;2023-04-06T06:19:22;101352.66;;;4.11;100.00
64844;BME280;51310;52.198;5.422;2023-04-06T06:21:48;101350.72;;;4.16;100.00
64844;BME280;51310;52.198;5.422;2023-04-06T06:24:14;101355.28;;;4.19;100.00
64844;BME280;51310;52.198;5.422;2023-04-06T06:26:39;101359.69;;;4.20;100.00
64844;BME280;51310;52.198;5.422;2023-04-06T06:29:07;101348.75;;;4.21;100.00
64844;BME280;51310;52.198;5.422;2023-04-06T06:31:32;101356.00;;;4.18;100.00
64844;BME280;51310;52.198;5.422;2023-04-06T06:33:58;101357.50;;;4.23;100.00
64844;BME280;51310;52.198;5.422;2023-04-06T06:36:25;101352.84;;;4.26;100.00
64844;BME280;51310;52.198;5.422;2023-04-06T06:38:51;101357.63;;;4.30;100.00
64844;BME280;51310;52.198;5.422;2023-04-06T06:41:17;101356.03;;;4.38;100.00
64844;BME280;51310;52.198;5.422;2023-04-06T06:43:43;101357.22;;;4.47;100.00
64844;BME280;51310;52.198;5.422;2023-04-06T06:46:08;101354.44;;;4.58;100.00
64844;BME280;51310;52.198;5.422;2023-04-06T06:48:34;101349.06;;;4.69;100.00
64844;BME280;51310;52.198;5.422;2023-04-06T06:51:00;101352.44;;;4.83;100.00
64844;BME280;51310;52.198;5.422;2023-04-06T06:53:26;101357.84;;;4.99;100.00
64844;BME280;51310;52.198;5.422;2023-04-06T06:55:52;101354.63;;;5.07;100.00
64844;BME280;51310;52.198;5.422;2023-04-06T06:58:19;101359.66;;;5.20;100.00
64844;BME280;51310;52.198;5.422;2023-04-06T07:00:48;101354.13;;;5.37;100.00
64844;BME280;51310;52.198;5.422;2023-04-06T07:03:13;101348.94;;;5.57;100.00
64844;BME280;51310;52.198;5.422;2023-04-06T07:05:46;101354.44;;;5.60;100.00
64844;BME280;51310;52.198;5.422;2023-04-06T07:08:16;101349.69;;;5.55;100.00
64844;BME280;51310;52.198;5.422;2023-04-06T07:10:41;101346.94;;;5.61;100.00
64844;BME280;51310;52.198;5.422;2023-04-06T07:13:07;101341.69;;;5.60;100.00
64844;BME280;51310;52.198;5.422;2023-04-06T07:15:33;101349.47;;;5.54;100.00
64844;BME280;51310;52.198;5.422;2023-04-06T07:17:58;101343.66;;;5.55;100.00
64844;BME280;51310;52.198;5.422;2023-04-06T07:20:25;101345.44;;;5.49;100.00
64844;BME280;51310;52.198;5.422;2023-04-06T07:22:50;101344.91;;;5.51;100.00
64844;BME280;51310;52.198;5.422;2023-04-06T07:25:16;101343.59;;;5.48;100.00
64844;BME280;51310;52.198;5.422;2023-04-06T07:27:42;101344.72;;;5.50;100.00
64844;BME280;51310;52.198;5.422;2023-04-06T07:30:08;101343.81;;;5.49;100.00
64844;BME280;51310;52.198;5.422;2023-04-06T07:32:34;101339.59;;;5.50;100.00
64844;BME280;51310;52.198;5.422;2023-04-06T07:35:01;101341.44;;;5.51;100.00
64844;BME280;51310;52.198;5.422;2023-04-06T07:37:27;101342.72;;;5.54;100.00
64844;BME280;51310;52.198;5.422;2023-04-06T07:39:53;101342.78;;;5.62;100.00
64844;BME280;51310;52.198;5.422;2023-04-06T07:42:18;101336.41;;;5.65;100.00
64844;BME280;51310;52.198;5.422;2023-04-06T07:44:44;101341.91;;;5.75;100.00
64844;BME280;51310;52.198;5.422;2023-04-06T07:47:10;101336.63;;;5.74;100.00
64844;BME280;51310;52.198;5.422;2023-04-06T07:49:36;101340.66;;;5.79;100.00
64844;BME280;51310;52.198;5.422;2023-04-06T07:52:02;101337.38;;;5.87;100.00
64844;BME280;51310;52.198;5.422;2023-04-06T07:54:28;101336.78;;;6.03;100.00
64844;BME280;51310;52.198;5.422;2023-04-06T07:56:54;101331.28;;;6.00;100.00
64844;BME280;51310;52.198;5.422;2023-04-06T07:59:19;101331.69;;;6.10;100.00
64844;BME280;51310;52.198;5.422;2023-04-06T08:01:45;101332.09;;;6.27;100.00
64844;BME280;51310;52.198;5.422;2023-04-06T08:04:11;101329.19;;;6.31;100.00
64844;BME280;51310;52.198;5.422;2023-04-06T08:06:36;101332.47;;;6.45;100.00
64844;BME280;51310;52.198;5.422;2023-04-06T08:09:02;101341.63;;;6.64;99.96
64844;BME280;51310;52.198;5.422;2023-04-06T08:11:29;101334.50;;;6.62;98.89
64844;BME280;51310;52.198;5.422;2023-04-06T08:13:55;101334.69;;;6.70;99.09
64844;BME280;51310;52.198;5.422;2023-04-06T08:16:24;101336.53;;;6.78;97.96
64844;BME280;51310;52.198;5.422;2023-04-06T08:18:50;101337.09;;;6.83;98.72
64844;BME280;51310;52.198;5.422;2023-04-06T08:21:16;101345.31;;;6.81;96.66
64844;BME280;51310;52.198;5.422;2023-04-06T08:23:41;101333.22;;;6.80;96.11
64844;BME280;51310;52.198;5.422;2023-04-06T08:26:07;101340.38;;;6.89;96.32
64844;BME280;51310;52.198;5.422;2023-04-06T08:28:33;101329.03;;;6.94;96.13
64844;BME280;51310;52.198;5.422;2023-04-06T08:31:06;101334.16;;;6.94;94.35
64844;BME280;51310;52.198;5.422;2023-04-06T08:33:34;101336.88;;;6.89;92.17
64844;BME280;51310;52.198;5.422;2023-04-06T08:36:12;101336.91;;;6.96;91.59
64844;BME280;51310;52.198;5.422;2023-04-06T08:38:40;101326.28;;;6.93;92.23
64844;BME280;51310;52.198;5.422;2023-04-06T08:41:12;101332.31;;;7.01;92.98
64844;BME280;51310;52.198;5.422;2023-04-06T08:43:50;101330.66;;;7.15;93.54
64844;BME280;51310;52.198;5.422;2023-04-06T08:46:21;101329.56;;;7.13;92.42
64844;BME280;51310;52.198;5.422;2023-04-06T08:48:49;101322.41;;;7.25;92.41
64844;BME280;51310;52.198;5.422;2023-04-06T08:51:18;101319.84;;;7.25;92.23
64844;BME280;51310;52.198;5.422;2023-04-06T08:53:44;101322.56;;;7.34;91.57
64844;BME280;51310;52.198;5.422;2023-04-06T08:56:11;101312.31;;;7.41;90.85
64844;BME280;51310;52.198;5.422;2023-04-06T08:58:39;101325.63;;;7.53;90.63
64844;BME280;51310;52.198;5.422;2023-04-06T09:01:08;101322.28;;;7.68;91.59
64844;BME280;51310;52.198;5.422;2023-04-06T09:03:40;101323.94;;;7.68;90.03
64844;BME280;51310;52.198;5.422;2023-04-06T09:06:08;101323.66;;;7.43;89.96
64844;BME280;51310;52.198;5.422;2023-04-06T09:08:39;101330.75;;;7.53;90.37
64844;BME280;51310;52.198;5.422;2023-04-06T09:11:06;101324.66;;;7.74;90.91
64844;BME280;51310;52.198;5.422;2023-04-06T09:13:44;101335.94;;;7.83;90.03
64844;BME280;51310;52.198;5.422;2023-04-06T09:16:10;101330.41;;;7.94;89.96
64844;BME280;51310;52.198;5.422;2023-04-06T09:18:36;101327.69;;;8.23;90.33
64844;BME280;51310;52.198;5.422;2023-04-06T09:21:05;101340.25;;;8.36;88.98
64844;BME280;51310;52.198;5.422;2023-04-06T09:23:32;101331.00;;;8.52;88.22
64844;BME280;51310;52.198;5.422;2023-04-06T09:26:15;101334.34;;;8.44;87.85
64844;BME280;51310;52.198;5.422;2023-04-06T09:31:20;101329.06;;;8.35;90.33
64844;BME280;51310;52.198;5.422;2023-04-06T09:33:46;101324.59;;;8.49;90.15
64844;BME280;51310;52.198;5.422;2023-04-06T09:36:13;101331.66;;;8.43;90.61
64844;BME280;51310;52.198;5.422;2023-04-06T09:38:59;101325.81;;;8.59;90.56
64844;BME280;51310;52.198;5.422;2023-04-06T09:41:28;101324.91;;;8.59;90.42
64844;BME280;51310;52.198;5.422;2023-04-06T09:44:11;101324.06;;;8.51;92.47
64844;BME280;51310;52.198;5.422;2023-04-06T09:46:42;101321.38;;;8.66;91.91
64844;BME280;51310;52.198;5.422;2023-04-06T09:49:10;101328.28;;;8.97;92.59
64844;BME280;51310;52.198;5.422;2023-04-06T09:51:46;101323.34;;;9.14;90.44
64844;BME280;51310;52.198;5.422;2023-04-06T09:54:22;101326.63;;;8.97;89.36
64844;BME280;51310;52.198;5.422;2023-04-06T09:57:24;101330.03;;;9.05;90.65
64844;BME280;51310;52.198;5.422;2023-04-06T10:00:02;101332.53;;;9.12;89.54
64844;BME280;51310;52.198;5.422;2023-04-06T10:02:41;101325.69;;;9.36;89.48
64844;BME280;51310;52.198;5.422;2023-04-06T10:07:59;101328.84;;;9.65;88.76
64844;BME280;51310;52.198;5.422;2023-04-06T10:10:28;101321.22;;;9.90;90.14
64844;BME280;51310;52.198;5.422;2023-04-06T10:12:55;101319.72;;;9.92;91.21
64844;BME280;51310;52.198;5.422;2023-04-06T10:15:22;101327.81;;;10.03;93.17
64844;BME280;51310;52.198;5.422;2023-04-06T10:17:48;101323.59;;;9.88;96.55
64844;BME280;51310;52.198;5.422;2023-04-06T10:20:49;101320.47;;;9.59;99.53
64844;BME280;51310;52.198;5.422;2023-04-06T10:26:01;101326.88;;;9.78;100.00
64844;BME280;51310;52.198;5.422;2023-04-06T10:28:36;101325.81;;;10.01;100.00
64844;BME280;51310;52.198;5.422;2023-04-06T10:31:05;101326.09;;;9.79;100.00
64844;BME280;51310;52.198;5.422;2023-04-06T10:33:31;101323.28;;;9.85;100.00
64844;BME280;51310;52.198;5.422;2023-04-06T10:35:57;101320.28;;;9.89;100.00
64844;BME280;51310;52.198;5.422;2023-04-06T10:38:37;101318.47;;;9.88;100.00
64844;BME280;51310;52.198;5.422;2023-04-06T10:41:06;101323.59;;;9.88;100.00
64844;BME280;51310;52.198;5.422;2023-04-06T10:43:38;101311.94;;;9.83;100.00
64844;BME280;51310;52.198;5.422;2023-04-06T10:46:06;101324.84;;;9.76;100.00
64844;BME280;51310;52.198;5.422;2023-04-06T10:51:18;101323.78;;;9.58;100.00
64844;BME280;51310;52.198;5.422;2023-04-06T10:53:48;101310.09;;;9.50;100.00
64844;BME280;51310;52.198;5.422;2023-04-06T10:56:16;101318.06;;;9.60;100.00
64844;BME280;51310;52.198;5.422;2023-04-06T10:58:51;101312.28;;;9.70;100.00
64844;BME280;51310;52.198;5.422;2023-04-06T11:01:20;101318.00;;;9.68;100.00
64844;BME280;51310;52.198;5.422;2023-04-06T11:03:52;101309.69;;;9.70;100.00
64844;BME280;51310;52.198;5.422;2023-04-06T11:06:24;101303.75;;;9.47;100.00
64844;BME280;51310;52.198;5.422;2023-04-06T11:08:51;101309.59;;;9.14;100.00
64844;BME280;51310;52.198;5.422;2023-04-06T11:11:20;101309.25;;;9.11;100.00
64844;BME280;51310;52.198;5.422;2023-04-06T11:13:58;101303.41;;;8.89;100.00
64844;BME280;51310;52.198;5.422;2023-04-06T11:16:27;101311.28;;;8.90;100.00
64844;BME280;51310;52.198;5.422;2023-04-06T11:19:05;101307.88;;;8.98;100.00
64844;BME280;51310;52.198;5.422;2023-04-06T11:21:33;101313.97;;;8.99;100.00
64844;BME280;51310;52.198;5.422;2023-04-06T11:26:49;101296.19;;;8.77;100.00
64844;BME280;51310;52.198;5.422;2023-04-06T11:29:22;101300.94;;;8.74;100.00
64844;BME280;51310;52.198;5.422;2023-04-06T11:32:00;101295.09;;;8.75;100.00
64844;BME280;51310;52.198;5.422;2023-04-06T11:34:29;101294.69;;;8.79;100.00
64844;BME280;51310;52.198;5.422;2023-04-06T11:37:01;101292.56;;;8.68;100.00
64844;BME280;51310;52.198;5.422;2023-04-06T11:39:29;101292.75;;;8.70;100.00
64844;BME280;51310;52.198;5.422;2023-04-06T11:42:00;101291.25;;;8.72;100.00
64844;BME280;51310;52.198;5.422;2023-04-06T11:44:44;101283.09;;;8.83;100.00
64844;BME280;51310;52.198;5.422;2023-04-06T11:47:14;101285.56;;;8.74;100.00
64844;BME280;51310;52.198;5.422;2023-04-06T11:49:44;101286.03;;;8.63;100.00
64844;BME280;51310;52.198;5.422;2023-04-06T11:52:23;101282.94;;;8.81;100.00
64844;BME280;51310;52.198;5.422;2023-04-06T11:54:51;101273.22;;;8.79;100.00
64844;BME280;51310;52.198;5.422;2023-04-06T11:57:20;101270.34;;;8.53;100.00
64844;BME280;51310;52.198;5.422;2023-04-06T11:59:46;101274.78;;;8.70;100.00
64844;BME280;51310;52.198;5.422;2023-04-06T12:02:12;101272.44;;;8.87;100.00
64844;BME280;51310;52.198;5.422;2023-04-06T12:04:38;101269.63;;;8.77;100.00
64844;BME280;51310;52.198;5.422;2023-04-06T12:07:04;101261.84;;;8.61;100.00
64844;BME280;51310;52.198;5.422;2023-04-06T12:09:31;101267.94;;;8.77;100.00
64844;BME280;51310;52.198;5.422;2023-04-06T12:11:57;101266.88;;;8.91;100.00
64844;BME280;51310;52.198;5.422;2023-04-06T12:14:23;101260.53;;;9.19;100.00
64844;BME280;51310;52.198;5.422;2023-04-06T12:16:49;101259.47;;;9.17;100.00
64844;BME280;51310;52.198;5.422;2023-04-06T12:19:15;101265.50;;;9.02;100.00
64844;BME280;51310;52.198;5.422;2023-04-06T12:21:40;101257.59;;;8.85;100.00
64844;BME280;51310;52.198;5.422;2023-04-06T12:24:07;101262.00;;;8.86;100.00
64844;BME280;51310;52.198;5.422;2023-04-06T12:26:34;101250.31;;;8.80;100.00
64844;BME280;51310;52.198;5.422;2023-04-06T12:29:00;101260.44;;;8.56;100.00
64844;BME280;51310;52.198;5.422;2023-04-06T12:31:32;101251.47;;;8.75;100.00
64844;BME280;51310;52.198;5.422;2023-04-06T12:34:00;101253.53;;;8.48;100.00
64844;BME280;51310;52.198;5.422;2023-04-06T12:36:27;101253.81;;;8.58;100.00
64844;BME280;51310;52.198;5.422;2023-04-06T12:38:53;101260.16;;;8.46;100.00
64844;BME280;51310;52.198;5.422;2023-04-06T12:41:19;101254.38;;;8.32;100.00
64844;BME280;51310;52.198;5.422;2023-04-06T12:43:46;101253.06;;;8.36;100.00
64844;BME280;51310;52.198;5.422;2023-04-06T12:46:12;101250.66;;;8.37;100.00
64844;BME280;51310;52.198;5.422;2023-04-06T12:48:38;101241.19;;;8.29;100.00
64844;BME280;51310;52.198;5.422;2023-04-06T12:51:05;101240.53;;;8.23;100.00
64844;BME280;51310;52.198;5.422;2023-04-06T12:53:33;101246.25;;;8.13;100.00
64844;BME280;51310;52.198;5.422;2023-04-06T12:56:01;101237.31;;;8.33;100.00
64844;BME280;51310;52.198;5.422;2023-04-06T12:58:27;101243.72;;;8.36;100.00
64844;BME280;51310;52.198;5.422;2023-04-06T13:00:57;101230.31;;;8.39;100.00
64844;BME280;51310;52.198;5.422;2023-04-06T13:03:23;101231.59;;;8.35;100.00
64844;BME280;51310;52.198;5.422;2023-04-06T13:05:50;101234.34;;;8.37;100.00
64844;BME280;51310;52.198;5.422;2023-04-06T13:08:18;101227.38;;;8.43;100.00